Time;durP1;ratioP1;P1;durP2;ratioP2;P2;SDS_P1;SDS_P2;PMS_P1;PMS_P2;Temp;Humidity;BMP_temperature;BMP_pressure;BME280_temperature;BME280_humidity;BME280_pressure;Samples;Min_cycle;Max_cycle;Signal;HPM_P1;HPM_P2
2022/06/27 00:02:13;;;;;;;5.47;4.63;;;;;;;20.50;72.71;99690.09;4895910;29;20122;-85
2022/06/27 00:04:38;;;;;;;4.97;4.50;;;;;;;20.53;71.92;99691.56;4897055;29;20397;-86
2022/06/27 00:07:03;;;;;;;5.65;4.80;;;;;;;20.49;71.95;99688.44;4896309;29;20060;-85
2022/06/27 00:09:29;;;;;;;6.60;4.82;;;;;;;20.51;72.22;99674.63;4896627;29;20066;-85
2022/06/27 00:11:55;;;;;;;5.72;4.70;;;;;;;20.54;71.99;99687.78;4895779;29;20059;-85
2022/06/27 00:14:20;;;;;;;5.30;4.70;;;;;;;20.54;71.97;99690.50;4895098;29;20024;-86
2022/06/27 00:16:46;;;;;;;4.75;4.32;;;;;;;20.54;72.35;99688.63;4894709;29;20132;-85
2022/06/27 00:19:11;;;;;;;5.38;4.13;;;;;;;20.54;72.20;99679.66;4896389;29;20440;-86
2022/06/27 00:21:36;;;;;;;4.78;4.38;;;;;;;20.52;72.13;99685.28;4910858;29;20486;-85
2022/06/27 00:24:02;;;;;;;5.80;4.65;;;;;;;20.54;72.47;99699.50;4894916;29;20340;-84
2022/06/27 00:26:27;;;;;;;4.72;4.30;;;;;;;20.50;72.38;99695.53;4911857;29;20110;-84
2022/06/27 00:28:52;;;;;;;6.95;4.40;;;;;;;20.48;72.53;99691.34;4895681;29;20341;-85
2022/06/27 00:31:18;;;;;;;4.53;4.07;;;;;;;20.50;72.62;99695.53;4895108;29;20119;-86
2022/06/27 00:33:43;;;;;;;5.10;4.28;;;;;;;20.49;72.67;99702.00;4911485;29;20038;-85
2022/06/27 00:36:09;;;;;;;4.70;4.30;;;;;;;20.47;72.64;99706.81;4909854;29;20147;-85
2022/06/27 00:38:34;;;;;;;5.53;4.43;;;;;;;20.49;72.78;99710.16;4895005;29;20066;-84
2022/06/27 00:40:59;;;;;;;5.93;4.28;;;;;;;20.47;72.56;99705.97;4895705;29;20044;-86
2022/06/27 00:43:25;;;;;;;4.82;4.30;;;;;;;20.46;72.41;99717.88;4911683;29;20039;-85
2022/06/27 00:45:50;;;;;;;5.50;4.18;;;;;;;20.46;72.58;99724.16;4896114;29;20064;-86
2022/06/27 00:48:15;;;;;;;4.10;3.70;;;;;;;20.49;72.61;99721.03;4895020;29;20039;-87
2022/06/27 00:50:41;;;;;;;3.85;3.55;;;;;;;20.47;72.47;99705.97;4910310;29;20043;-85
2022/06/27 00:53:07;;;;;;;5.53;4.63;;;;;;;20.42;73.09;99712.88;4895672;29;20070;-85
2022/06/27 00:55:32;;;;;;;7.82;4.40;;;;;;;20.42;73.69;99729.19;4895005;29;20027;-86
2022/06/27 00:58:00;;;;;;;5.60;4.85;;;;;;;20.44;73.65;99718.09;4910990;29;20426;-85
2022/06/27 01:00:25;;;;;;;6.53;5.30;;;;;;;20.42;74.31;99720.19;4895329;29;20111;-85
2022/06/27 01:02:50;;;;;;;5.53;5.03;;;;;;;20.35;75.17;99705.72;4894562;29;20069;-89
2022/06/27 01:05:16;;;;;;;6.03;5.43;;;;;;;;;;4910256;29;20031;-85
2022/06/27 01:07:41;;;;;;;6.10;4.82;;;;;;;20.35;74.39;99720.16;4925594;29;20375;-86
2022/06/27 01:10:07;;;;;;;7.10;5.20;;;;;;;20.37;74.66;99720.78;4895742;29;20127;-86
2022/06/27 01:12:33;;;;;;;5.75;5.15;;;;;;;20.43;74.53;99713.72;4895208;29;20174;-85
2022/06/27 01:14:59;;;;;;;6.25;5.20;;;;;;;20.40;74.16;99709.53;4895941;29;20024;-87
2022/06/27 01:17:24;;;;;;;5.47;4.60;;;;;;;20.37;74.74;99700.94;4894564;29;20410;-85
2022/06/27 01:19:50;;;;;;;6.35;5.22;;;;;;;;;;4893679;29;20232;-84
2022/06/27 01:22:17;;;;;;;5.68;5.18;;;;;;;20.30;74.72;99686.47;4911059;29;21006;-86
2022/06/27 01:24:42;;;;;;;6.15;5.35;;;;;;;20.28;74.16;99691.28;4894354;29;20492;-84
2022/06/27 01:27:08;;;;;;;6.43;5.82;;;;;;;20.26;74.04;99694.22;4894852;29;20122;-87
2022/06/27 01:29:34;;;;;;;9.00;5.40;;;;;;;20.26;74.02;99701.50;4894439;29;20030;-85
2022/06/27 01:32:00;;;;;;;6.07;5.07;;;;;;;20.26;74.65;99691.50;4895187;29;20032;-85
2022/06/27 01:34:25;;;;;;;6.05;5.07;;;;;;;20.29;74.69;99687.53;4894379;29;20052;-85
2022/06/27 01:36:51;;;;;;;6.53;5.25;;;;;;;20.32;74.52;99682.50;4894627;29;20031;-86
2022/06/27 01:39:22;;;;;;;7.13;5.13;;;;;;;20.32;74.59;99673.53;4894418;29;20122;-87
2022/06/27 01:41:53;;;;;;;6.53;4.85;;;;;;;20.31;74.98;99664.53;4894795;29;20094;-84
2022/06/27 01:44:20;;;;;;;6.70;4.95;;;;;;;20.32;74.48;99654.50;4894815;29;20055;-85
2022/06/27 01:46:48;;;;;;;6.78;5.05;;;;;;;;;;4894816;29;20075;-85
2022/06/27 01:49:15;;;;;;;5.15;4.65;;;;;;;20.31;75.11;99640.09;4909624;29;20127;-85
2022/06/27 01:51:46;;;;;;;5.70;4.78;;;;;;;20.32;74.28;99638.22;4893705;29;20043;-85
2022/06/27 01:54:12;;;;;;;5.30;4.80;;;;;;;20.31;74.47;99636.53;4909071;29;20039;-84
2022/06/27 01:56:39;;;;;;;7.38;5.07;;;;;;;20.29;74.61;99633.19;4894590;29;20046;-85
2022/06/27 01:59:04;;;;;;;5.22;4.65;;;;;;;20.27;74.25;99638.00;4909975;29;20024;-85
2022/06/27 02:01:30;;;;;;;6.03;4.78;;;;;;;20.24;74.07;99636.53;4894857;29;20204;-84
2022/06/27 02:03:57;;;;;;;5.30;4.53;;;;;;;20.25;74.24;99631.94;4909565;29;20028;-84
2022/06/27 02:06:23;;;;;;;5.95;4.72;;;;;;;20.26;74.30;99626.31;4909297;29;20057;-86
2022/06/27 02:08:51;;;;;;;6.32;4.95;;;;;;;20.25;74.01;99624.63;4892109;29;20425;-85
2022/06/27 02:11:17;;;;;;;4.80;4.03;;;;;;;20.24;74.27;99624.84;4893381;29;20027;-85
2022/06/27 02:13:43;;;;;;;5.15;4.65;;;;;;;20.23;74.54;99624.00;4909776;29;20039;-86
2022/06/27 02:16:11;;;;;;;5.10;4.60;;;;;;;20.25;74.76;99621.09;4894219;29;20371;-84
2022/06/27 02:18:38;;;;;;;6.32;4.60;;;;;;;20.25;74.07;99630.06;4909349;29;20106;-86
2022/06/27 02:21:03;;;;;;;5.55;4.82;;;;;;;20.23;74.37;99621.28;4893323;29;20067;-84
2022/06/27 02:23:29;;;;;;;5.53;5.03;;;;;;;20.21;74.13;99619.84;4893486;29;20482;-84
2022/06/27 02:25:55;;;;;;;6.55;4.97;;;;;;;20.21;74.15;99617.94;4893824;29;20030;-85
2022/06/27 02:28:22;;;;;;;5.25;4.60;;;;;;;20.19;74.04;99606.47;4893044;29;20031;-85
2022/06/27 02:30:48;;;;;;;5.75;4.88;;;;;;;20.17;74.72;99610.44;4892656;29;20027;-85
2022/06/27 02:33:13;;;;;;;7.03;5.15;;;;;;;20.17;74.49;99610.44;4893754;29;20031;-85
2022/06/27 02:35:43;;;;;;;4.93;4.43;;;;;;;20.16;73.93;99606.88;4891997;29;20038;-85
2022/06/27 02:38:10;;;;;;;5.82;4.65;;;;;;;20.17;74.13;99610.44;4892492;29;20119;-85
2022/06/27 02:40:40;;;;;;;5.68;4.55;;;;;;;20.17;74.40;99610.44;4893061;29;20043;-85
2022/06/27 02:43:07;;;;;;;6.22;5.13;;;;;;;20.16;74.37;99603.34;4894143;29;20053;-86
2022/06/27 02:45:35;;;;;;;5.28;4.70;;;;;;;20.14;74.44;99595.38;4908697;29;20035;-85
2022/06/27 02:48:01;;;;;;;5.60;4.50;;;;;;;20.16;74.75;99597.91;4885997;29;20023;-84
2022/06/27 02:50:27;;;;;;;5.07;4.68;;;;;;;20.15;74.09;99593.50;4892459;29;20150;-85
2022/06/27 02:52:55;;;;;;;6.53;5.20;;;;;;;20.10;74.35;99573.25;4893185;29;20078;-86
2022/06/27 02:55:26;;;;;;;5.15;4.65;;;;;;;20.10;74.78;99573.25;4893295;29;20390;-85
2022/06/27 02:57:59;;;;;;;7.15;4.80;;;;;;;20.11;74.95;99576.81;4893886;29;20055;-87
2022/06/27 03:00:27;;;;;;;5.80;4.72;;;;;;;20.06;75.24;99565.72;4892719;29;20063;-86
2022/06/27 03:02:54;;;;;;;4.72;4.22;;;;;;;20.03;75.39;99556.13;4909239;29;20135;-86
2022/06/27 03:05:19;;;;;;;5.40;4.40;;;;;;;19.98;74.86;99566.78;4892836;29;20153;-84
2022/06/27 03:07:45;;;;;;;5.95;4.22;;;;;;;19.97;75.23;99567.81;4909208;29;20427;-85
2022/06/27 03:10:11;;;;;;;6.35;4.60;;;;;;;19.98;74.34;99571.38;4893241;29;20461;-88
2022/06/27 03:12:37;;;;;;;7.13;4.90;;;;;;;19.97;74.98;99573.25;4909699;29;20028;-85
2022/06/27 03:15:03;;;;;;;5.35;4.80;;;;;;;19.95;74.69;99578.06;4892247;29;20307;-86
2022/06/27 03:17:28;;;;;;;4.97;4.32;;;;;;;19.95;75.50;99586.19;4893200;29;20039;-89
2022/06/27 03:19:54;;;;;;;5.68;4.03;;;;;;;19.97;74.94;99596.84;4908568;29;20036;-85
2022/06/27 03:22:19;;;;;;;4.47;4.00;;;;;;;19.96;75.05;99590.59;4913432;29;20114;-87
2022/06/27 03:24:45;;;;;;;5.57;4.50;;;;;;;19.92;75.21;99580.34;4913291;29;20059;-86
2022/06/27 03:27:10;;;;;;;5.47;3.83;;;;;;;19.89;74.70;99581.59;4897373;29;20054;-84
2022/06/27 03:29:36;;;;;;;6.90;3.83;;;;;;;19.86;74.55;99587.41;4897136;29;20402;-84
2022/06/27 03:32:03;;;;;;;5.80;4.20;;;;;;;19.88;73.93;99600.81;4896508;29;20055;-85
2022/06/27 03:34:29;;;;;;;5.07;4.22;;;;;;;19.89;74.17;99607.91;4896394;29;20565;-85
2022/06/27 03:36:54;;;;;;;4.35;3.95;;;;;;;19.92;74.54;99607.50;4912101;29;20059;-85
2022/06/27 03:39:20;;;;;;;6.72;4.57;;;;;;;19.93;74.84;99612.72;4913049;29;20067;-85
2022/06/27 03:41:45;;;;;;;5.25;4.60;;;;;;;19.92;74.52;99615.66;4896754;29;20028;-86
2022/06/27 03:44:11;;;;;;;4.70;4.30;;;;;;;19.92;74.61;99612.94;4897253;29;20034;-85
2022/06/27 03:46:37;;;;;;;5.57;4.80;;;;;;;19.92;75.28;99629.22;4896263;29;20028;-85
2022/06/27 03:51:47;;;;;;;7.53;5.57;;;;;;;19.87;75.35;99608.13;4913965;29;20312;-84
2022/06/27 03:54:12;;;;;;;5.80;5.20;;;;;;;19.85;74.65;99612.88;4896574;29;20023;-87
2022/06/27 03:56:37;;;;;;;5.82;5.15;;;;;;;19.82;75.54;99599.72;4896937;29;20492;-86
2022/06/27 03:59:03;;;;;;;5.15;4.20;;;;;;;19.85;74.73;99604.75;4897153;29;20407;-85
2022/06/27 04:01:28;;;;;;;6.72;4.25;;;;;;;19.78;74.85;99603.91;4895500;29;20467;-86
2022/06/27 04:03:53;;;;;;;4.93;4.25;;;;;;;19.78;74.49;99610.16;4894767;29;20195;-86
2022/06/27 04:06:19;;;;;;;5.97;4.82;;;;;;;19.83;75.10;99617.69;4912601;29;20126;-86
2022/06/27 04:08:44;;;;;;;6.10;4.68;;;;;;;19.80;74.74;99620.81;4895928;29;20042;-87
2022/06/27 04:11:09;;;;;;;5.57;4.90;;;;;;;19.81;75.36;99623.31;4895987;29;20478;-85
2022/06/27 04:13:35;;;;;;;7.07;5.53;;;;;;;19.78;74.76;99626.44;4911993;29;20027;-86
2022/06/27 04:16:00;;;;;;;6.75;5.78;;;;;;;19.82;75.07;99616.03;4912793;29;20035;-86
2022/06/27 04:18:25;;;;;;;8.88;6.28;;;;;;;19.84;74.40;99616.66;4896014;29;20040;-87
2022/06/27 04:20:51;;;;;;;6.72;6.10;;;;;;;19.82;75.11;99605.16;4895073;29;20164;-85
2022/06/27 04:23:16;;;;;;;6.72;5.95;;;;;;;19.81;74.55;99606.19;4895160;29;20246;-87
2022/06/27 04:25:42;;;;;;;6.72;5.40;;;;;;;19.81;74.59;99606.19;4895840;29;20031;-85
2022/06/27 04:28:08;;;;;;;7.05;5.30;;;;;;;19.82;75.17;99597.03;4896392;29;20482;-86
2022/06/27 04:30:33;;;;;;;7.25;5.50;;;;;;;19.84;74.93;99603.06;4895516;29;20031;-86
2022/06/27 04:32:59;;;;;;;7.78;5.82;;;;;;;19.83;75.08;99595.13;4895791;29;20040;-87
2022/06/27 04:35:25;;;;;;;6.78;5.80;;;;;;;19.78;75.34;99590.34;4895225;29;20184;-84
2022/06/27 04:37:50;;;;;;;9.63;6.22;;;;;;;19.76;75.29;99587.81;4895018;29;20391;-86
2022/06/27 04:40:19;;;;;;;7.38;5.35;;;;;;;19.78;75.71;99572.19;4895890;29;20031;-85
2022/06/27 04:42:44;;;;;;;;;;;;;;;19.83;75.71;99566.13;4897010;29;20027;-85
2022/06/27 04:45:13;;;;;;;5.60;5.05;;;;;;;19.81;74.91;99552.75;4896187;29;20474;-86
2022/06/27 04:47:41;;;;;;;6.22;5.60;;;;;;;19.78;75.58;99560.47;4896310;29;20032;-85
2022/06/27 04:50:11;;;;;;;6.25;4.90;;;;;;;19.77;75.74;99556.09;4895124;29;20035;-85
2022/06/27 04:52:40;;;;;;;5.78;5.00;;;;;;;19.77;75.37;99545.25;4910430;29;20032;-85
2022/06/27 04:55:08;;;;;;;5.35;4.85;;;;;;;19.83;75.73;99527.28;4895799;29;20479;-85
2022/06/27 04:57:34;;;;;;;5.30;4.80;;;;;;;19.83;74.98;99525.41;4910939;29;20043;-86
2022/06/27 05:00:01;;;;;;;8.88;6.03;;;;;;;19.78;75.35;99531.47;4896438;29;20035;-85
2022/06/27 05:02:27;;;;;;;7.60;5.90;;;;;;;19.78;75.35;99536.06;4894841;29;20482;-85
2022/06/27 05:04:52;;;;;;;6.32;5.38;;;;;;;19.77;75.66;99531.66;4895499;29;20043;-85
2022/06/27 05:07:18;;;;;;;6.20;5.60;;;;;;;19.71;75.63;99508.09;4894730;29;20096;-88
2022/06/27 05:09:45;;;;;;;6.63;5.72;;;;;;;19.63;75.34;99513.72;4927605;29;20091;-87
2022/06/27 05:12:11;;;;;;;6.07;5.47;;;;;;;19.67;75.32;99547.53;4895688;29;20402;-87
2022/06/27 05:14:36;;;;;;;6.38;5.50;;;;;;;19.75;75.36;99569.88;4895396;29;20032;-85
2022/06/27 05:17:01;;;;;;;5.60;4.97;;;;;;;19.74;75.60;99568.19;4893409;29;20530;-85
2022/06/27 05:19:27;;;;;;;5.72;4.85;;;;;;;19.71;75.92;99571.34;4895244;29;20091;-86
2022/06/27 05:21:52;;;;;;;6.25;5.65;;;;;;;19.72;75.63;99561.31;4894613;29;20106;-86
2022/06/27 05:24:17;;;;;;;8.20;5.70;;;;;;;19.72;75.77;99556.72;4910078;29;20086;-85
2022/06/27 05:26:44;;;;;;;6.75;5.47;;;;;;;19.71;75.92;99560.47;4894566;29;20082;-85
2022/06/27 05:29:09;;;;;;;6.95;6.22;;;;;;;19.73;76.46;99566.53;4895271;29;20031;-86
2022/06/27 05:31:35;;;;;;;7.40;5.88;;;;;;;19.75;76.45;99571.75;4894637;29;20039;-88
2022/06/27 05:34:00;;;;;;;6.95;6.10;;;;;;;19.71;76.60;99567.78;4895221;29;20034;-86
2022/06/27 05:36:26;;;;;;;6.13;5.53;;;;;;;19.72;76.91;99577.59;4893801;29;20031;-87
2022/06/27 05:38:51;;;;;;;8.30;6.47;;;;;;;19.70;76.95;99599.50;4899260;29;20031;-85
2022/06/27 05:41:17;;;;;;;7.13;6.43;;;;;;;19.75;77.22;99610.56;4893851;29;20024;-86
2022/06/27 05:43:42;;;;;;;8.38;7.20;;;;;;;19.76;76.87;99627.69;4893225;29;20777;-87
2022/06/27 05:46:08;;;;;;;7.40;6.65;;;;;;;19.84;77.30;99623.94;4909404;29;20039;-86
2022/06/27 05:48:34;;;;;;;8.77;7.88;;;;;;;19.91;77.19;99641.13;4912952;29;20363;-87
2022/06/27 05:50:59;;;;;;;8.02;7.10;;;;;;;19.95;77.50;99639.66;4901331;29;20035;-87
2022/06/27 05:53:27;;;;;;;8.95;7.45;;;;;;;19.95;76.61;99642.38;4915874;29;20050;-85
2022/06/27 05:55:53;;;;;;;8.75;7.38;;;;;;;20.02;76.68;99645.94;4915914;29;20030;-85
2022/06/27 05:58:18;;;;;;;9.32;8.35;;;;;;;20.02;76.91;99654.91;4900902;29;20036;-85
2022/06/27 06:00:44;;;;;;;7.50;6.63;;;;;;;20.11;76.37;99660.97;4900747;29;20776;-86
2022/06/27 06:03:09;;;;;;;8.40;7.63;;;;;;;20.08;76.03;99666.81;4900028;29;20027;-86
2022/06/27 06:05:48;;;;;;;8.43;7.63;;;;;;;20.05;75.97;99672.66;5097996;27;20692;-88
2022/06/27 06:08:14;;;;;;;8.73;6.50;;;;;;;20.12;76.67;99685.22;5075244;28;20111;-85
2022/06/27 06:10:39;;;;;;;7.75;7.00;;;;;;;20.16;76.32;99695.66;5075327;28;20038;-85
2022/06/27 06:13:05;;;;;;;7.80;6.63;;;;;;;20.18;75.17;99710.69;5080085;28;20086;-85
2022/06/27 06:15:31;;;;;;;8.63;7.78;;;;;;;20.08;75.91;99718.41;5080850;28;20032;-89
2022/06/27 06:18:01;;;;;;;6.93;6.22;;;;;;;20.07;74.64;99714.03;5079222;28;20470;-85
2022/06/27 06:20:27;;;;;;;8.07;7.20;;;;;;;20.05;75.61;99711.50;5078214;28;20171;-85
2022/06/27 06:22:53;;;;;;;7.63;6.82;;;;;;;20.04;75.08;99709.00;5078846;28;20071;-88
2022/06/27 06:25:18;;;;;;;7.60;6.70;;;;;;;20.09;75.13;99710.06;5078864;28;20067;-86
2022/06/27 06:27:44;;;;;;;6.93;6.22;;;;;;;20.10;74.91;99705.47;5059535;28;20028;-88
2022/06/27 06:30:10;;;;;;;6.13;5.53;;;;;;;20.16;74.57;99696.50;5074495;28;20031;-85
2022/06/27 06:32:36;;;;;;;6.93;6.32;;;;;;;20.13;74.96;99688.75;5078806;28;20016;-88
2022/06/27 06:35:02;;;;;;;7.82;7.03;;;;;;;20.11;75.01;99680.81;5079348;28;20020;-84
2022/06/27 06:37:29;;;;;;;8.25;7.45;;;;;;;20.09;76.17;99666.63;5076734;28;20111;-86
2022/06/27 06:39:54;;;;;;;8.32;7.53;;;;;;;20.04;75.98;99654.69;5078911;28;20474;-87
2022/06/27 06:42:20;;;;;;;8.73;7.82;;;;;;;19.98;75.62;99639.25;5080540;28;20056;-87
2022/06/27 06:44:46;;;;;;;8.65;7.85;;;;;;;19.85;75.35;99628.34;5080002;28;20034;-73
2022/06/27 06:47:12;;;;;;;8.95;8.07;;;;;;;19.71;74.19;99624.75;5093901;28;20066;-90
2022/06/27 06:49:39;;;;;;;9.45;8.45;;;;;;;19.67;74.50;99620.78;5084972;28;20036;-89
2022/06/27 06:52:05;;;;;;;10.90;7.97;;;;;;;19.67;75.07;99631.66;5067891;28;20032;-88
2022/06/27 06:54:31;;;;;;;8.75;7.80;;;;;;;19.75;75.13;99647.72;5071543;28;20517;-90
2022/06/27 06:56:57;;;;;;;8.90;7.40;;;;;;;19.84;74.38;99670.09;5067654;28;20040;-86
2022/06/27 06:59:22;;;;;;;8.10;7.07;;;;;;;19.92;74.16;99665.34;5067122;28;20028;-87
2022/06/27 07:01:48;;;;;;;8.98;7.95;;;;;;;19.97;74.22;99659.28;5068096;28;20029;-89
2022/06/27 07:04:14;;;;;;;8.50;7.80;;;;;;;19.94;74.40;99648.84;5066288;28;20046;-85
2022/06/27 07:06:40;;;;;;;8.98;8.07;;;;;;;19.86;74.72;99635.44;5068946;28;20028;-84
2022/06/27 07:09:05;;;;;;;9.55;7.32;;;;;;;19.96;75.13;99665.75;5070562;28;20017;-86
2022/06/27 07:11:36;;;;;;;7.88;7.00;;;;;;;20.08;74.68;99680.41;5064548;28;20036;-87
2022/06/27 07:14:02;;;;;;;9.20;7.68;;;;;;;20.07;74.27;99665.16;5064269;28;20020;-86
2022/06/27 07:16:28;;;;;;;8.18;7.28;;;;;;;20.16;73.79;99660.34;5060000;28;20110;-88
2022/06/27 07:18:55;;;;;;;7.65;6.80;;;;;;;20.21;73.47;99671.44;5064995;28;20020;-87
2022/06/27 07:21:21;;;;;;;7.35;6.43;;;;;;;20.22;73.16;99692.13;5057742;28;20028;-87
2022/06/27 07:23:48;;;;;;;7.40;6.03;;;;;;;20.23;72.99;99683.75;5059427;28;20040;-89
2022/06/27 07:26:14;;;;;;;7.55;6.57;;;;;;;20.18;72.29;99680.00;5074190;28;20024;-88
2022/06/27 07:28:40;;;;;;;6.60;5.90;;;;;;;20.22;72.80;99694.81;5059086;28;20055;-86
2022/06/27 07:31:08;;;;;;;7.72;6.65;;;;;;;20.20;71.78;99686.88;5059365;28;20064;-87
2022/06/27 07:33:36;;;;;;;8.32;6.68;;;;;;;20.21;71.58;99685.84;5057881;28;20031;-87
2022/06/27 07:36:02;;;;;;;7.47;6.67;;;;;;;20.18;71.72;99701.72;5056903;28;20048;-86
2022/06/27 07:38:27;;;;;;;7.38;6.47;;;;;;;20.22;71.21;99703.81;5057446;28;20147;-87
2022/06/27 07:40:52;;;;;;;7.15;6.10;;;;;;;20.15;71.45;99713.81;5057095;28;20335;-86
2022/06/27 07:43:18;;;;;;;7.60;6.40;;;;;;;20.08;70.91;99713.81;5058353;28;20601;-88
2022/06/27 07:45:44;;;;;;;8.75;6.72;;;;;;;20.09;72.04;99722.78;5056277;28;20028;-86
2022/06/27 07:48:09;;;;;;;7.45;6.68;;;;;;;20.11;71.69;99716.13;5055288;28;20028;-87
2022/06/27 07:50:37;;;;;;;6.75;6.05;;;;;;;20.15;71.84;99708.41;5052747;28;20024;-87
2022/06/27 07:53:13;;;;;;;7.03;5.50;;;;;;;20.20;71.73;99713.22;5053594;28;20402;-89
2022/06/27 07:55:40;;;;;;;6.55;5.07;;;;;;;20.24;71.82;99712.59;5072729;28;20051;-87
2022/06/27 07:58:07;;;;;;;8.07;6.45;;;;;;;20.19;72.11;99700.66;5056119;28;20020;-88
2022/06/27 08:00:33;;;;;;;7.75;6.15;;;;;;;20.21;71.66;99704.84;5052401;28;20466;-87
2022/06/27 08:02:59;;;;;;;5.63;5.00;;;;;;;20.30;72.33;99709.03;5075918;28;20466;-87
2022/06/27 08:05:24;;;;;;;7.82;6.28;;;;;;;20.26;72.11;99728.69;5075587;28;20064;-87
2022/06/27 08:07:50;;;;;;;7.20;6.47;;;;;;;20.29;71.68;99739.13;5056336;28;20502;-87
2022/06/27 08:10:16;;;;;;;7.65;6.20;;;;;;;20.30;72.43;99738.09;5056546;28;20047;-88
2022/06/27 08:12:41;;;;;;;7.00;6.30;;;;;;;20.25;72.53;99727.84;5056248;28;20028;-87
2022/06/27 08:15:06;;;;;;;6.72;6.03;;;;;;;20.28;73.09;99735.56;5059487;28;20031;-86
2022/06/27 08:17:32;;;;;;;7.97;6.32;;;;;;;20.28;73.36;99753.75;5058487;28;20024;-87
2022/06/27 08:19:58;;;;;;;7.25;6.45;;;;;;;20.29;73.48;99764.41;5056024;28;20104;-86
2022/06/27 08:22:25;;;;;;;8.77;7.63;;;;;;;20.27;73.04;99755.63;5075080;28;20455;-86
2022/06/27 08:24:51;;;;;;;7.47;6.75;;;;;;;20.36;73.45;99753.59;5055200;28;20032;-87
2022/06/27 08:27:16;;;;;;;4.57;3.72;;;;;;;20.40;72.95;99769.28;5058092;28;20063;-88
2022/06/27 08:29:42;;;;;;;8.90;6.93;;;;;;;20.37;73.00;99766.97;5058022;28;20030;-86
2022/06/27 08:32:07;;;;;;;7.90;7.10;;;;;;;20.34;72.91;99764.66;5050792;28;20048;-88
2022/06/27 08:34:33;;;;;;;7.35;6.10;;;;;;;20.37;73.09;99764.25;5050919;28;20447;-87
2022/06/27 08:36:59;;;;;;;7.55;6.55;;;;;;;20.40;72.62;99768.47;5059824;28;20105;-87
2022/06/27 08:39:25;;;;;;;9.23;7.95;;;;;;;;;;5046522;28;20152;-86
2022/06/27 08:41:50;;;;;;;9.80;8.20;;;;;;;20.35;72.47;99765.50;5067437;28;20122;-87
2022/06/27 08:44:16;;;;;;;8.00;7.07;;;;;;;20.36;72.73;99768.00;5055891;28;20036;-86
2022/06/27 08:46:45;;;;;;;9.52;7.45;;;;;;;20.38;72.00;99778.66;5054066;28;20036;-86
2022/06/27 08:49:14;;;;;;;10.00;7.30;;;;;;;20.36;72.21;99781.59;5053689;28;20028;-86
2022/06/27 08:51:39;;;;;;;;;;;;;;;20.37;71.60;99788.69;5058100;28;20032;-87
2022/06/27 08:54:04;;;;;;;8.48;6.80;;;;;;;20.38;71.21;99779.50;5054293;28;19916;-85
2022/06/27 08:56:31;;;;;;;7.15;5.10;;;;;;;20.45;71.72;99784.13;5072088;28;20069;-85
2022/06/27 08:58:59;;;;;;;9.80;7.97;;;;;;;20.46;71.53;99789.38;5060921;28;20439;-85
2022/06/27 09:01:27;;;;;;;10.77;8.02;;;;;;;20.43;71.85;99792.50;5058056;28;20117;-84
2022/06/27 09:04:00;;;;;;;8.35;7.38;;;;;;;20.40;72.35;99785.59;5050694;28;20074;-85
2022/06/27 09:06:46;;;;;;;7.10;6.40;;;;;;;20.45;71.62;99784.97;5053529;28;20290;-85
2022/06/27 09:09:14;;;;;;;7.47;6.63;;;;;;;20.46;72.10;99796.69;5065639;28;20071;-85
2022/06/27 09:11:41;;;;;;;7.70;7.00;;;;;;;20.40;72.43;99798.34;5049415;28;20032;-85
2022/06/27 09:14:31;;;;;;;9.73;7.67;;;;;;;20.39;71.57;99791.22;5071381;28;20701;-85
2022/06/27 09:16:58;;;;;;;9.23;7.25;;;;;;;20.38;71.48;99797.69;5061547;28;20278;-85
2022/06/27 09:22:14;;;;;;;6.00;5.20;;;;;;;20.44;71.63;99794.16;5245890;22;20510;-87
2022/06/27 09:24:59;;;;;;;6.95;6.22;;;;;;;20.40;70.53;99784.75;4972426;28;20030;-87
2022/06/27 09:27:43;;;;;;;7.53;6.75;;;;;;;20.43;70.53;99789.78;4975938;28;20070;-87
2022/06/27 09:30:29;;;;;;;8.13;6.35;;;;;;;20.43;71.01;99789.78;4972782;28;20033;-87
2022/06/27 09:32:59;;;;;;;8.95;8.13;;;;;;;20.41;71.30;99795.41;4955681;28;20488;-87
2022/06/27 09:35:34;;;;;;;7.20;5.90;;;;;;;20.49;71.46;99798.97;4974654;28;20030;-87
2022/06/27 09:38:02;;;;;;;5.72;4.22;;;;;;;20.54;71.39;99794.59;4972377;28;20110;-87
2022/06/27 09:40:29;;;;;;;7.40;6.60;;;;;;;20.55;70.75;99792.72;4954579;28;20082;-87
2022/06/27 09:42:56;;;;;;;8.20;7.38;;;;;;;20.54;71.21;99793.75;4955485;28;20019;-87
2022/06/27 09:45:27;;;;;;;7.97;7.18;;;;;;;20.48;71.14;99784.56;4972750;28;20031;-87
2022/06/27 09:48:04;;;;;;;9.15;8.07;;;;;;;20.52;71.49;99793.13;4946579;28;20018;-88
2022/06/27 09:50:35;;;;;;;9.60;7.60;;;;;;;20.52;70.99;99783.09;4956073;28;20034;-87
2022/06/27 09:53:01;;;;;;;10.70;9.07;;;;;;;20.53;70.92;99767.63;4955717;28;20497;-87
2022/06/27 09:55:27;;;;;;;7.60;6.80;;;;;;;20.56;71.69;99778.09;4956371;28;20033;-87
2022/06/27 09:57:53;;;;;;;9.82;8.13;;;;;;;20.62;70.47;99783.53;4972141;28;20336;-87
2022/06/27 10:00:20;;;;;;;8.85;7.65;;;;;;;20.68;70.54;99776.44;4956454;28;20030;-87
2022/06/27 10:02:46;;;;;;;5.90;5.30;;;;;;;20.71;70.49;99779.56;4955782;28;20117;-87
2022/06/27 10:05:14;;;;;;;7.50;6.05;;;;;;;20.71;70.74;99790.44;4955009;28;20049;-86
2022/06/27 10:07:42;;;;;;;10.25;7.75;;;;;;;20.68;69.41;99787.28;4955199;28;20022;-86
2022/06/27 10:10:08;;;;;;;9.32;8.43;;;;;;;20.66;69.01;99792.94;4971222;28;20396;-87
2022/06/27 10:12:36;;;;;;;8.70;7.78;;;;;;;20.71;69.53;99793.16;4956305;28;20026;-87
2022/06/27 10:15:10;;;;;;;7.32;6.50;;;;;;;20.78;70.10;99795.88;4956645;28;20030;-87
2022/06/27 10:17:38;;;;;;;8.68;6.40;;;;;;;20.80;69.86;99791.06;4989802;28;20492;-86
2022/06/27 10:20:09;;;;;;;7.68;5.68;;;;;;;20.83;69.67;99798.84;4955590;28;20126;-86
2022/06/27 10:22:35;;;;;;;6.85;6.15;;;;;;;20.81;67.96;99800.06;4954189;28;20041;-87
2022/06/27 10:25:25;;;;;;;6.90;5.65;;;;;;;20.79;68.32;99796.72;4956247;28;20442;-87
2022/06/27 10:28:11;;;;;;;8.27;6.45;;;;;;;20.79;67.57;99791.28;4987365;28;20077;-86
2022/06/27 10:30:42;;;;;;;5.95;5.07;;;;;;;20.82;67.58;99783.56;4989531;28;20086;-86
2022/06/27 10:33:23;;;;;;;6.90;6.03;;;;;;;20.86;67.20;99787.53;4971518;28;20066;-86
2022/06/27 10:35:54;;;;;;;7.45;5.68;;;;;;;20.88;67.37;99785.44;4972166;28;20034;-86
2022/06/27 10:38:22;;;;;;;5.18;4.45;;;;;;;20.92;68.52;99778.56;4970618;28;20023;-86
2022/06/27 10:40:48;;;;;;;10.07;8.68;;;;;;;20.92;67.55;99786.72;4988134;28;20018;-87
2022/06/27 10:43:35;;;;;;;6.68;6.07;;;;;;;20.96;67.63;99789.84;4954874;28;20049;-86
2022/06/27 10:46:01;;;;;;;9.02;8.13;;;;;;;20.97;67.40;99777.91;4989808;28;20031;-86
2022/06/27 10:48:37;;;;;;;6.47;5.88;;;;;;;21.00;68.01;99781.06;4959844;28;20033;-86
2022/06/27 10:51:17;;;;;;;8.07;7.15;;;;;;;21.05;67.78;99766.81;4957769;28;20027;-86
2022/06/27 10:53:43;;;;;;;5.90;5.32;;;;;;;21.09;67.96;99768.06;4989347;28;20670;-87
2022/06/27 10:56:46;;;;;;;7.35;6.28;;;;;;;21.10;67.91;99760.75;4957759;28;20045;-86
2022/06/27 10:59:14;;;;;;;7.93;6.50;;;;;;;21.10;67.72;99772.47;4991826;28;20081;-86
2022/06/27 11:02:00;;;;;;;6.18;4.70;;;;;;;21.10;66.76;99777.91;4974828;28;20497;-86
2022/06/27 11:04:29;;;;;;;5.20;4.55;;;;;;;21.11;66.36;99786.91;4963890;28;20275;-87
2022/06/27 11:06:59;;;;;;;4.85;4.10;;;;;;;21.13;67.13;99791.09;4957134;28;20081;-86
2022/06/27 11:09:38;;;;;;;4.90;4.45;;;;;;;21.15;66.29;99793.59;4972615;28;20026;-86
2022/06/27 11:12:05;;;;;;;7.60;6.20;;;;;;;21.14;66.07;99795.47;4957232;28;20038;-87
2022/06/27 11:14:48;;;;;;;6.13;5.53;;;;;;;21.16;66.37;99803.44;4957541;28;20477;-87
2022/06/27 11:17:46;;;;;;;8.68;7.78;;;;;;;21.18;66.88;99793.16;4958451;28;20041;-86
2022/06/27 11:20:20;;;;;;;5.95;5.03;;;;;;;21.21;66.63;99803.63;4923589;28;20053;-86
2022/06/27 11:22:47;;;;;;;6.47;5.85;;;;;;;21.22;67.08;99799.84;4956816;28;20054;-86
2022/06/27 11:25:12;;;;;;;6.57;5.97;;;;;;;21.22;67.00;99814.28;4972654;28;20096;-86
2022/06/27 11:27:45;;;;;;;6.15;5.03;;;;;;;21.25;67.06;99805.75;4956788;28;20263;-86
2022/06/27 11:33:05;;;;;;;10.23;8.65;;;;;;;21.26;67.40;99806.59;4958114;28;20097;-86
2022/06/27 11:35:31;;;;;;;11.10;10.05;;;;;;;21.23;67.10;99809.72;4956574;28;20026;-86
2022/06/27 11:37:56;;;;;;;9.98;8.98;;;;;;;21.21;67.29;99803.63;4973493;28;20106;-86
2022/06/27 11:40:22;;;;;;;8.38;7.63;;;;;;;21.21;67.42;99795.47;4957927;28;20092;-86
2022/06/27 11:42:52;;;;;;;6.95;6.22;;;;;;;21.23;67.50;99802.41;4957046;28;20121;-86
2022/06/27 11:45:17;;;;;;;8.80;7.78;;;;;;;21.26;67.05;99795.69;4946477;28;20038;-86
2022/06/27 11:47:45;;;;;;;6.38;5.78;;;;;;;21.27;66.93;99795.50;4974058;28;20527;-86